Neptune Pioneer — 3EKH6 — position and weather

sailwx.info

Track history (hours):
 
Tides and Currents Weather Stations Pressure Air Temp Water Temp Dewpoint Dewpoint Depression Visibility Wind Speed Wind Dir Waves Ship Positions

Neptune Pioneer

Last reported at 2015-Mar-28 12:31 UTC. Time now 2015-Mar-29 10:38 UTC.
Position N 24°58' E 120°04'.

Length 190 m; draft 12.3 m.

Type: Cargo ship. MMSI: 372723000.

Date/timePositionNaut miles runAvg speedWind from/ knotsBaromVisibWave heightAir tempDewpointWater temp
2015-Mar-28 12:31N 24°58' E 120°04'1313.1
2015-Mar-28 11:33N 24°50' E 119°53'1312.7
2015-Mar-28 10:33N 24°43' E 119°42'1313.1
2015-Mar-28 09:33N 24°35' E 119°30'1312.8
2015-Mar-28 08:32N 24°26' E 119°19'6112.2
2015-Mar-28 03:31N 23°50' E 118°25'13111.7
2015-Mar-27 16:23N 22°09' E 116°55'  
2015-Mar-22 10:20N 01°16' E 104°12'1113.1
2015-Mar-22 09:31N 01°15' E 104°01'5 3.9
2015-Mar-22 08:14N 01°17' E 103°57'0 0.1
2015-Mar-22 07:26N 01°17' E 103°57'0 0.0
2015-Mar-22 04:17N 01°17' E 103°57'0 0.0
2015-Mar-22 03:32N 01°17' E 103°57'0 0.0
2015-Mar-22 02:14N 01°17' E 103°57'0 0.0
2015-Mar-22 01:32N 01°17' E 103°57'0 0.1
2015-Mar-21 23:23N 01°17' E 103°57'0 0.0
2015-Mar-21 22:32N 01°17' E 103°57'2 1.7
2015-Mar-21 21:33N 01°15' E 103°57'7 5.2
2015-Mar-21 20:09N 01°11' E 103°51'5 6.9
2015-Mar-21 19:28N 01°09' E 103°47'65 9.0
2015-Mar-21 12:12N 01°37' E 102°48'913.0
2015-Mar-21 11:33N 01°41' E 102°41'1312.6
2015-Mar-21 10:33N 01°46' E 102°29'1211.7
2015-Mar-21 09:33N 01°51' E 102°19'  
Track history (hours):
 
Tides and Currents Weather Stations Pressure Air Temp Water Temp Dewpoint Dewpoint Depression Visibility Wind Speed Wind Dir Waves Ship Positions

Neptune Pioneer

Last reported at 2015-Mar-28 12:31 UTC. Time now 2015-Mar-29 10:38 UTC.
Position N 24°58' E 120°04'.

Length 190 m; draft 12.3 m.

Type: Cargo ship. MMSI: 372723000.

Date/timePositionNaut miles runAvg speedWind from/ knotsBaromVisibWave heightAir tempDewpointWater temp
2015-Mar-28 12:31N 24°58' E 120°04'1313.1
2015-Mar-28 11:33N 24°50' E 119°53'1312.7
2015-Mar-28 10:33N 24°43' E 119°42'1313.1
2015-Mar-28 09:33N 24°35' E 119°30'1312.8
2015-Mar-28 08:32N 24°26' E 119°19'6112.2
2015-Mar-28 03:31N 23°50' E 118°25'13111.7
2015-Mar-27 16:23N 22°09' E 116°55'  
2015-Mar-22 10:20N 01°16' E 104°12'1113.1
2015-Mar-22 09:31N 01°15' E 104°01'5 3.9
2015-Mar-22 08:14N 01°17' E 103°57'0 0.1
2015-Mar-22 07:26N 01°17' E 103°57'0 0.0
2015-Mar-22 04:17N 01°17' E 103°57'0 0.0
2015-Mar-22 03:32N 01°17' E 103°57'0 0.0
2015-Mar-22 02:14N 01°17' E 103°57'0 0.0
2015-Mar-22 01:32N 01°17' E 103°57'0 0.1
2015-Mar-21 23:23N 01°17' E 103°57'0 0.0
2015-Mar-21 22:32N 01°17' E 103°57'2 1.7
2015-Mar-21 21:33N 01°15' E 103°57'7 5.2
2015-Mar-21 20:09N 01°11' E 103°51'5 6.9
2015-Mar-21 19:28N 01°09' E 103°47'65 9.0
2015-Mar-21 12:12N 01°37' E 102°48'913.0
2015-Mar-21 11:33N 01°41' E 102°41'1312.6
2015-Mar-21 10:33N 01°46' E 102°29'1211.7
2015-Mar-21 09:33N 01°51' E 102°19'  

Dump ship's entire track history